sensor_id;sensor_type;location;lat;lon;timestamp;P1;durP1;ratioP1;P2;durP2;ratioP2
64826;SDS011;51265;53.972;12.286;2022-08-19T00:00:13;91.22;;;57.63;;
64826;SDS011;51265;53.972;12.286;2022-08-19T00:02:53;94.45;;;57.78;;
64826;SDS011;51265;53.972;12.286;2022-08-19T00:05:19;98.50;;;60.22;;
64826;SDS011;51265;53.972;12.286;2022-08-19T00:07:47;92.70;;;55.25;;
64826;SDS011;51265;53.972;12.286;2022-08-19T00:10:14;85.78;;;53.13;;
64826;SDS011;51265;53.972;12.286;2022-08-19T00:12:42;95.07;;;57.20;;
64826;SDS011;51265;53.972;12.286;2022-08-19T00:15:09;98.35;;;59.22;;
64826;SDS011;51265;53.972;12.286;2022-08-19T00:17:38;84.65;;;51.67;;
64826;SDS011;51265;53.972;12.286;2022-08-19T00:20:06;85.90;;;51.53;;
64826;SDS011;51265;53.972;12.286;2022-08-19T00:22:32;82.32;;;53.20;;
64826;SDS011;51265;53.972;12.286;2022-08-19T00:24:59;91.30;;;56.33;;
64826;SDS011;51265;53.972;12.286;2022-08-19T00:27:24;114.45;;;59.25;;
64826;SDS011;51265;53.972;12.286;2022-08-19T00:29:51;135.75;;;64.25;;
64826;SDS011;51265;53.972;12.286;2022-08-19T00:32:17;139.43;;;65.15;;
64826;SDS011;51265;53.972;12.286;2022-08-19T00:34:43;140.10;;;65.57;;
64826;SDS011;51265;53.972;12.286;2022-08-19T00:37:09;110.82;;;65.00;;
64826;SDS011;51265;53.972;12.286;2022-08-19T00:39:35;121.57;;;68.70;;
64826;SDS011;51265;53.972;12.286;2022-08-19T00:42:01;126.55;;;71.15;;
64826;SDS011;51265;53.972;12.286;2022-08-19T00:44:27;134.07;;;73.55;;
64826;SDS011;51265;53.972;12.286;2022-08-19T00:46:55;142.15;;;73.47;;
64826;SDS011;51265;53.972;12.286;2022-08-19T00:49:34;124.82;;;71.70;;
64826;SDS011;51265;53.972;12.286;2022-08-19T00:52:14;136.82;;;71.90;;
64826;SDS011;51265;53.972;12.286;2022-08-19T00:54:43;124.55;;;70.00;;
64826;SDS011;51265;53.972;12.286;2022-08-19T00:57:12;133.35;;;72.82;;
64826;SDS011;51265;53.972;12.286;2022-08-19T00:59:42;143.30;;;74.85;;
64826;SDS011;51265;53.972;12.286;2022-08-19T01:02:11;129.05;;;73.20;;
64826;SDS011;51265;53.972;12.286;2022-08-19T01:04:38;135.57;;;74.63;;
64826;SDS011;51265;53.972;12.286;2022-08-19T01:07:04;140.60;;;73.80;;
64826;SDS011;51265;53.972;12.286;2022-08-19T01:09:30;142.30;;;73.85;;
64826;SDS011;51265;53.972;12.286;2022-08-19T01:11:56;146.90;;;73.50;;
64826;SDS011;51265;53.972;12.286;2022-08-19T01:14:22;128.70;;;71.13;;
64826;SDS011;51265;53.972;12.286;2022-08-19T01:16:49;155.93;;;75.60;;
64826;SDS011;51265;53.972;12.286;2022-08-19T01:21:59;145.77;;;75.22;;
64826;SDS011;51265;53.972;12.286;2022-08-19T01:24:29;144.73;;;74.10;;
64826;SDS011;51265;53.972;12.286;2022-08-19T01:26:56;138.60;;;74.60;;
64826;SDS011;51265;53.972;12.286;2022-08-19T01:29:23;142.35;;;74.38;;
64826;SDS011;51265;53.972;12.286;2022-08-19T01:31:48;135.13;;;76.60;;
64826;SDS011;51265;53.972;12.286;2022-08-19T01:34:18;137.85;;;75.53;;
64826;SDS011;51265;53.972;12.286;2022-08-19T01:36:45;131.73;;;76.25;;
64826;SDS011;51265;53.972;12.286;2022-08-19T01:39:14;150.05;;;76.07;;
64826;SDS011;51265;53.972;12.286;2022-08-19T01:41:42;152.27;;;76.80;;
64826;SDS011;51265;53.972;12.286;2022-08-19T01:44:08;145.57;;;74.75;;
64826;SDS011;51265;53.972;12.286;2022-08-19T01:46:35;147.75;;;75.25;;
64826;SDS011;51265;53.972;12.286;2022-08-19T01:49:02;155.82;;;76.05;;
64826;SDS011;51265;53.972;12.286;2022-08-19T01:51:29;158.48;;;77.63;;
64826;SDS011;51265;53.972;12.286;2022-08-19T01:53:55;152.25;;;76.50;;
64826;SDS011;51265;53.972;12.286;2022-08-19T01:56:22;173.88;;;76.00;;
64826;SDS011;51265;53.972;12.286;2022-08-19T01:58:50;156.23;;;74.60;;
64826;SDS011;51265;53.972;12.286;2022-08-19T02:01:19;145.30;;;74.53;;
64826;SDS011;51265;53.972;12.286;2022-08-19T02:03:45;141.63;;;73.32;;
64826;SDS011;51265;53.972;12.286;2022-08-19T02:06:11;130.20;;;72.43;;
64826;SDS011;51265;53.972;12.286;2022-08-19T02:08:38;141.98;;;71.30;;
64826;SDS011;51265;53.972;12.286;2022-08-19T02:11:04;126.28;;;71.15;;
64826;SDS011;51265;53.972;12.286;2022-08-19T02:13:31;146.32;;;71.90;;
64826;SDS011;51265;53.972;12.286;2022-08-19T02:15:57;150.57;;;74.18;;
64826;SDS011;51265;53.972;12.286;2022-08-19T02:18:23;150.70;;;72.72;;
64826;SDS011;51265;53.972;12.286;2022-08-19T02:20:49;110.65;;;64.22;;
64826;SDS011;51265;53.972;12.286;2022-08-19T02:23:15;102.78;;;60.25;;
64826;SDS011;51265;53.972;12.286;2022-08-19T02:25:43;98.45;;;58.10;;
64826;SDS011;51265;53.972;12.286;2022-08-19T02:28:11;86.13;;;55.50;;
64826;SDS011;51265;53.972;12.286;2022-08-19T02:30:37;96.30;;;58.08;;
64826;SDS011;51265;53.972;12.286;2022-08-19T02:33:04;112.93;;;60.15;;
64826;SDS011;51265;53.972;12.286;2022-08-19T02:35:30;120.60;;;65.43;;
64826;SDS011;51265;53.972;12.286;2022-08-19T02:37:56;110.05;;;61.33;;
64826;SDS011;51265;53.972;12.286;2022-08-19T02:40:47;126.35;;;66.57;;
64826;SDS011;51265;53.972;12.286;2022-08-19T02:43:15;112.40;;;63.45;;
64826;SDS011;51265;53.972;12.286;2022-08-19T02:45:41;139.45;;;70.25;;
64826;SDS011;51265;53.972;12.286;2022-08-19T02:48:06;132.68;;;67.63;;
64826;SDS011;51265;53.972;12.286;2022-08-19T02:50:37;136.80;;;72.18;;
64826;SDS011;51265;53.972;12.286;2022-08-19T02:53:04;145.13;;;71.15;;
64826;SDS011;51265;53.972;12.286;2022-08-19T02:55:32;149.05;;;74.50;;
64826;SDS011;51265;53.972;12.286;2022-08-19T02:57:58;148.95;;;76.07;;
64826;SDS011;51265;53.972;12.286;2022-08-19T03:00:25;138.77;;;72.03;;
64826;SDS011;51265;53.972;12.286;2022-08-19T03:02:52;139.40;;;71.70;;
64826;SDS011;51265;53.972;12.286;2022-08-19T03:05:18;138.52;;;71.90;;
64826;SDS011;51265;53.972;12.286;2022-08-19T03:07:44;142.18;;;75.28;;
64826;SDS011;51265;53.972;12.286;2022-08-19T03:10:12;149.60;;;77.13;;
64826;SDS011;51265;53.972;12.286;2022-08-19T03:12:38;136.70;;;75.47;;
64826;SDS011;51265;53.972;12.286;2022-08-19T03:15:05;150.43;;;77.10;;
64826;SDS011;51265;53.972;12.286;2022-08-19T03:17:33;147.82;;;74.78;;
64826;SDS011;51265;53.972;12.286;2022-08-19T03:19:59;145.23;;;76.05;;
64826;SDS011;51265;53.972;12.286;2022-08-19T03:22:26;156.05;;;76.88;;
64826;SDS011;51265;53.972;12.286;2022-08-19T03:24:52;166.35;;;77.53;;
64826;SDS011;51265;53.972;12.286;2022-08-19T03:27:18;158.43;;;75.63;;
64826;SDS011;51265;53.972;12.286;2022-08-19T03:29:45;160.70;;;76.30;;
64826;SDS011;51265;53.972;12.286;2022-08-19T03:32:11;161.13;;;74.40;;
64826;SDS011;51265;53.972;12.286;2022-08-19T03:34:38;150.65;;;76.38;;
64826;SDS011;51265;53.972;12.286;2022-08-19T03:37:05;149.02;;;73.70;;
64826;SDS011;51265;53.972;12.286;2022-08-19T03:39:33;140.82;;;69.32;;
64826;SDS011;51265;53.972;12.286;2022-08-19T03:41:59;144.52;;;71.13;;
64826;SDS011;51265;53.972;12.286;2022-08-19T03:44:28;150.75;;;71.93;;
64826;SDS011;51265;53.972;12.286;2022-08-19T03:46:56;151.30;;;73.53;;
64826;SDS011;51265;53.972;12.286;2022-08-19T03:49:24;154.32;;;74.13;;
64826;SDS011;51265;53.972;12.286;2022-08-19T03:51:53;157.52;;;75.07;;
64826;SDS011;51265;53.972;12.286;2022-08-19T03:54:21;156.88;;;74.32;;
64826;SDS011;51265;53.972;12.286;2022-08-19T03:56:49;134.45;;;68.00;;
64826;SDS011;51265;53.972;12.286;2022-08-19T03:59:17;124.32;;;68.25;;
64826;SDS011;51265;53.972;12.286;2022-08-19T04:01:45;117.10;;;63.20;;
64826;SDS011;51265;53.972;12.286;2022-08-19T04:04:11;123.15;;;62.88;;
64826;SDS011;51265;53.972;12.286;2022-08-19T04:06:37;108.55;;;60.33;;
64826;SDS011;51265;53.972;12.286;2022-08-19T04:09:05;109.50;;;61.53;;
64826;SDS011;51265;53.972;12.286;2022-08-19T04:11:35;103.63;;;59.83;;
64826;SDS011;51265;53.972;12.286;2022-08-19T04:14:07;94.45;;;58.35;;
64826;SDS011;51265;53.972;12.286;2022-08-19T04:16:33;97.28;;;57.38;;
64826;SDS011;51265;53.972;12.286;2022-08-19T04:19:00;98.60;;;56.60;;
64826;SDS011;51265;53.972;12.286;2022-08-19T04:21:27;103.38;;;55.85;;
64826;SDS011;51265;53.972;12.286;2022-08-19T04:23:54;102.80;;;55.63;;
64826;SDS011;51265;53.972;12.286;2022-08-19T04:26:25;112.97;;;59.58;;
64826;SDS011;51265;53.972;12.286;2022-08-19T04:28:58;115.05;;;59.60;;
64826;SDS011;51265;53.972;12.286;2022-08-19T04:31:26;133.57;;;62.05;;
64826;SDS011;51265;53.972;12.286;2022-08-19T04:33:57;124.70;;;62.13;;
64826;SDS011;51265;53.972;12.286;2022-08-19T04:36:25;134.75;;;62.97;;
64826;SDS011;51265;53.972;12.286;2022-08-19T04:38:54;131.68;;;64.28;;
64826;SDS011;51265;53.972;12.286;2022-08-19T04:41:21;155.30;;;68.80;;
64826;SDS011;51265;53.972;12.286;2022-08-19T04:44:06;141.07;;;65.88;;
64826;SDS011;51265;53.972;12.286;2022-08-19T04:46:32;148.10;;;68.55;;
64826;SDS011;51265;53.972;12.286;2022-08-19T04:48:59;160.68;;;71.53;;
64826;SDS011;51265;53.972;12.286;2022-08-19T04:51:25;155.57;;;70.03;;
64826;SDS011;51265;53.972;12.286;2022-08-19T04:53:51;171.10;;;72.88;;
64826;SDS011;51265;53.972;12.286;2022-08-19T04:56:19;164.95;;;71.72;;
64826;SDS011;51265;53.972;12.286;2022-08-19T04:58:47;165.07;;;70.00;;
64826;SDS011;51265;53.972;12.286;2022-08-19T05:01:21;158.43;;;68.50;;
64826;SDS011;51265;53.972;12.286;2022-08-19T05:03:53;148.55;;;67.35;;
64826;SDS011;51265;53.972;12.286;2022-08-19T05:06:22;132.45;;;62.03;;
64826;SDS011;51265;53.972;12.286;2022-08-19T05:08:49;125.72;;;63.42;;
64826;SDS011;51265;53.972;12.286;2022-08-19T05:11:20;139.95;;;73.38;;
64826;SDS011;51265;53.972;12.286;2022-08-19T05:13:54;119.53;;;59.83;;
64826;SDS011;51265;53.972;12.286;2022-08-19T05:16:21;112.40;;;58.30;;
64826;SDS011;51265;53.972;12.286;2022-08-19T05:18:48;114.22;;;56.67;;
64826;SDS011;51265;53.972;12.286;2022-08-19T05:21:34;104.40;;;53.88;;
64826;SDS011;51265;53.972;12.286;2022-08-19T05:24:19;98.68;;;53.50;;
64826;SDS011;51265;53.972;12.286;2022-08-19T05:26:48;91.40;;;52.75;;
64826;SDS011;51265;53.972;12.286;2022-08-19T05:29:17;99.85;;;54.30;;
64826;SDS011;51265;53.972;12.286;2022-08-19T05:31:45;98.28;;;54.20;;
64826;SDS011;51265;53.972;12.286;2022-08-19T05:34:15;109.32;;;56.35;;
64826;SDS011;51265;53.972;12.286;2022-08-19T05:36:48;99.80;;;54.25;;
64826;SDS011;51265;53.972;12.286;2022-08-19T05:39:16;113.15;;;56.88;;
64826;SDS011;51265;53.972;12.286;2022-08-19T05:41:45;116.35;;;58.75;;
64826;SDS011;51265;53.972;12.286;2022-08-19T05:44:16;107.95;;;56.95;;
64826;SDS011;51265;53.972;12.286;2022-08-19T05:46:43;119.60;;;59.92;;
64826;SDS011;51265;53.972;12.286;2022-08-19T05:49:09;110.93;;;57.08;;
64826;SDS011;51265;53.972;12.286;2022-08-19T05:51:35;102.05;;;54.35;;
64826;SDS011;51265;53.972;12.286;2022-08-19T05:54:03;105.15;;;55.20;;
64826;SDS011;51265;53.972;12.286;2022-08-19T05:56:31;89.75;;;52.13;;
64826;SDS011;51265;53.972;12.286;2022-08-19T05:58:57;97.05;;;51.92;;
64826;SDS011;51265;53.972;12.286;2022-08-19T06:01:25;95.55;;;53.03;;
64826;SDS011;51265;53.972;12.286;2022-08-19T06:03:51;90.28;;;50.97;;
64826;SDS011;51265;53.972;12.286;2022-08-19T06:06:17;89.85;;;50.65;;
64826;SDS011;51265;53.972;12.286;2022-08-19T06:08:44;93.45;;;52.65;;
64826;SDS011;51265;53.972;12.286;2022-08-19T06:11:32;100.43;;;55.38;;
64826;SDS011;51265;53.972;12.286;2022-08-19T06:14:03;105.75;;;56.10;;
64826;SDS011;51265;53.972;12.286;2022-08-19T06:16:34;113.47;;;55.60;;
64826;SDS011;51265;53.972;12.286;2022-08-19T06:19:02;117.63;;;59.45;;
64826;SDS011;51265;53.972;12.286;2022-08-19T06:21:29;136.75;;;63.15;;
64826;SDS011;51265;53.972;12.286;2022-08-19T06:23:56;154.05;;;65.88;;
64826;SDS011;51265;53.972;12.286;2022-08-19T06:26:22;175.57;;;70.88;;
64826;SDS011;51265;53.972;12.286;2022-08-19T06:28:49;185.25;;;72.57;;
64826;SDS011;51265;53.972;12.286;2022-08-19T06:31:17;210.00;;;76.57;;
64826;SDS011;51265;53.972;12.286;2022-08-19T06:33:50;213.73;;;78.50;;
64826;SDS011;51265;53.972;12.286;2022-08-19T06:38:46;263.98;;;86.18;;
64826;SDS011;51265;53.972;12.286;2022-08-19T06:41:12;281.33;;;87.18;;
64826;SDS011;51265;53.972;12.286;2022-08-19T06:43:38;289.75;;;87.65;;
64826;SDS011;51265;53.972;12.286;2022-08-19T06:46:09;265.73;;;83.13;;
64826;SDS011;51265;53.972;12.286;2022-08-19T06:48:37;285.10;;;83.57;;
64826;SDS011;51265;53.972;12.286;2022-08-19T06:51:03;359.35;;;92.53;;
64826;SDS011;51265;53.972;12.286;2022-08-19T06:53:31;257.05;;;82.65;;
64826;SDS011;51265;53.972;12.286;2022-08-19T06:55:57;304.60;;;85.65;;
64826;SDS011;51265;53.972;12.286;2022-08-19T06:58:26;287.08;;;83.97;;
64826;SDS011;51265;53.972;12.286;2022-08-19T07:00:51;245.45;;;78.70;;
64826;SDS011;51265;53.972;12.286;2022-08-19T07:03:17;284.42;;;82.72;;
64826;SDS011;51265;53.972;12.286;2022-08-19T07:05:43;235.02;;;78.35;;
64826;SDS011;51265;53.972;12.286;2022-08-19T07:08:09;251.98;;;76.85;;
64826;SDS011;51265;53.972;12.286;2022-08-19T07:10:35;238.32;;;78.13;;
64826;SDS011;51265;53.972;12.286;2022-08-19T07:13:02;283.67;;;82.30;;
64826;SDS011;51265;53.972;12.286;2022-08-19T07:15:39;299.50;;;83.53;;
64826;SDS011;51265;53.972;12.286;2022-08-19T07:18:04;377.58;;;90.65;;
64826;SDS011;51265;53.972;12.286;2022-08-19T07:20:30;355.52;;;90.18;;
64826;SDS011;51265;53.972;12.286;2022-08-19T07:22:57;320.38;;;86.85;;
64826;SDS011;51265;53.972;12.286;2022-08-19T07:25:22;323.50;;;88.63;;
64826;SDS011;51265;53.972;12.286;2022-08-19T07:27:49;224.45;;;77.18;;
64826;SDS011;51265;53.972;12.286;2022-08-19T07:30:16;270.38;;;80.60;;
64826;SDS011;51265;53.972;12.286;2022-08-19T07:32:42;313.90;;;86.68;;
64826;SDS011;51265;53.972;12.286;2022-08-19T07:35:08;252.43;;;81.40;;
64826;SDS011;51265;53.972;12.286;2022-08-19T07:37:35;263.13;;;80.75;;
64826;SDS011;51265;53.972;12.286;2022-08-19T07:40:03;237.07;;;75.05;;
64826;SDS011;51265;53.972;12.286;2022-08-19T07:42:32;237.68;;;74.68;;
64826;SDS011;51265;53.972;12.286;2022-08-19T07:44:58;264.98;;;76.90;;
64826;SDS011;51265;53.972;12.286;2022-08-19T07:47:24;328.92;;;82.38;;
64826;SDS011;51265;53.972;12.286;2022-08-19T07:49:49;320.73;;;80.45;;
64826;SDS011;51265;53.972;12.286;2022-08-19T07:52:16;332.55;;;81.60;;
64826;SDS011;51265;53.972;12.286;2022-08-19T07:54:42;344.83;;;82.68;;
64826;SDS011;51265;53.972;12.286;2022-08-19T07:57:08;356.13;;;86.47;;
64826;SDS011;51265;53.972;12.286;2022-08-19T07:59:34;338.42;;;84.40;;
64826;SDS011;51265;53.972;12.286;2022-08-19T08:02:00;370.00;;;86.55;;
64826;SDS011;51265;53.972;12.286;2022-08-19T08:04:26;364.73;;;89.00;;
64826;SDS011;51265;53.972;12.286;2022-08-19T08:07:12;228.55;;;75.20;;
64826;SDS011;51265;53.972;12.286;2022-08-19T08:09:56;255.73;;;81.40;;
64826;SDS011;51265;53.972;12.286;2022-08-19T08:12:25;201.15;;;75.78;;
64826;SDS011;51265;53.972;12.286;2022-08-19T08:14:55;259.63;;;86.25;;
64826;SDS011;51265;53.972;12.286;2022-08-19T08:17:24;251.55;;;84.22;;
64826;SDS011;51265;53.972;12.286;2022-08-19T08:19:52;252.30;;;83.20;;
64826;SDS011;51265;53.972;12.286;2022-08-19T08:22:18;279.27;;;88.65;;
64826;SDS011;51265;53.972;12.286;2022-08-19T08:25:08;268.02;;;87.35;;
64826;SDS011;51265;53.972;12.286;2022-08-19T08:27:40;320.05;;;91.28;;
64826;SDS011;51265;53.972;12.286;2022-08-19T08:30:19;266.15;;;87.28;;
64826;SDS011;51265;53.972;12.286;2022-08-19T08:32:48;187.95;;;76.25;;
64826;SDS011;51265;53.972;12.286;2022-08-19T08:35:15;217.75;;;80.78;;
64826;SDS011;51265;53.972;12.286;2022-08-19T08:37:42;239.98;;;81.40;;
64826;SDS011;51265;53.972;12.286;2022-08-19T08:40:14;274.58;;;83.78;;
64826;SDS011;51265;53.972;12.286;2022-08-19T08:42:51;190.63;;;74.88;;
64826;SDS011;51265;53.972;12.286;2022-08-19T08:45:26;206.68;;;76.80;;
64826;SDS011;51265;53.972;12.286;2022-08-19T08:47:54;196.27;;;75.15;;
64826;SDS011;51265;53.972;12.286;2022-08-19T08:50:31;197.40;;;76.20;;
64826;SDS011;51265;53.972;12.286;2022-08-19T08:53:02;196.43;;;72.72;;
64826;SDS011;51265;53.972;12.286;2022-08-19T08:55:30;209.93;;;74.63;;
64826;SDS011;51265;53.972;12.286;2022-08-19T09:00:40;166.82;;;69.90;;
64826;SDS011;51265;53.972;12.286;2022-08-19T09:03:18;175.20;;;71.50;;
64826;SDS011;51265;53.972;12.286;2022-08-19T09:05:51;154.50;;;69.78;;
64826;SDS011;51265;53.972;12.286;2022-08-19T09:08:26;160.88;;;68.70;;
64826;SDS011;51265;53.972;12.286;2022-08-19T09:11:15;181.88;;;72.95;;
64826;SDS011;51265;53.972;12.286;2022-08-19T09:16:56;178.25;;;71.93;;
64826;SDS011;51265;53.972;12.286;2022-08-19T09:19:23;174.32;;;71.53;;
64826;SDS011;51265;53.972;12.286;2022-08-19T09:21:49;176.75;;;69.30;;
64826;SDS011;51265;53.972;12.286;2022-08-19T09:24:15;172.50;;;67.80;;
64826;SDS011;51265;53.972;12.286;2022-08-19T09:26:41;170.25;;;65.15;;
64826;SDS011;51265;53.972;12.286;2022-08-19T09:29:09;169.82;;;67.57;;
64826;SDS011;51265;53.972;12.286;2022-08-19T09:31:35;159.60;;;65.80;;
64826;SDS011;51265;53.972;12.286;2022-08-19T09:34:02;160.77;;;64.03;;
64826;SDS011;51265;53.972;12.286;2022-08-19T09:36:30;137.73;;;63.22;;
64826;SDS011;51265;53.972;12.286;2022-08-19T09:39:05;122.40;;;58.08;;
64826;SDS011;51265;53.972;12.286;2022-08-19T09:41:31;124.80;;;60.08;;
64826;SDS011;51265;53.972;12.286;2022-08-19T09:43:58;119.03;;;57.92;;
64826;SDS011;51265;53.972;12.286;2022-08-19T09:46:26;137.73;;;64.70;;
64826;SDS011;51265;53.972;12.286;2022-08-19T09:48:53;129.25;;;63.25;;
64826;SDS011;51265;53.972;12.286;2022-08-19T09:51:21;139.40;;;65.07;;
64826;SDS011;51265;53.972;12.286;2022-08-19T09:53:50;130.98;;;62.88;;
64826;SDS011;51265;53.972;12.286;2022-08-19T09:56:19;138.30;;;64.25;;
64826;SDS011;51265;53.972;12.286;2022-08-19T09:58:47;131.15;;;62.70;;
64826;SDS011;51265;53.972;12.286;2022-08-19T10:01:18;133.55;;;62.50;;
64826;SDS011;51265;53.972;12.286;2022-08-19T10:03:52;117.97;;;62.25;;
64826;SDS011;51265;53.972;12.286;2022-08-19T10:06:23;123.75;;;61.58;;
64826;SDS011;51265;53.972;12.286;2022-08-19T10:08:51;127.80;;;64.10;;
64826;SDS011;51265;53.972;12.286;2022-08-19T10:11:18;138.30;;;65.95;;
64826;SDS011;51265;53.972;12.286;2022-08-19T10:13:46;127.60;;;64.03;;
64826;SDS011;51265;53.972;12.286;2022-08-19T10:16:14;138.13;;;65.60;;
64826;SDS011;51265;53.972;12.286;2022-08-19T10:18:41;125.47;;;60.67;;
64826;SDS011;51265;53.972;12.286;2022-08-19T10:21:13;132.90;;;63.72;;
64826;SDS011;51265;53.972;12.286;2022-08-19T10:23:46;125.50;;;69.88;;
64826;SDS011;51265;53.972;12.286;2022-08-19T10:26:24;104.47;;;58.00;;
64826;SDS011;51265;53.972;12.286;2022-08-19T10:28:52;123.38;;;64.28;;
64826;SDS011;51265;53.972;12.286;2022-08-19T10:31:25;124.03;;;63.05;;
64826;SDS011;51265;53.972;12.286;2022-08-19T10:33:54;105.57;;;59.00;;
64826;SDS011;51265;53.972;12.286;2022-08-19T10:36:27;104.80;;;59.35;;
64826;SDS011;51265;53.972;12.286;2022-08-19T10:38:55;98.53;;;59.30;;
64826;SDS011;51265;53.972;12.286;2022-08-19T10:41:28;115.32;;;60.45;;
64826;SDS011;51265;53.972;12.286;2022-08-19T10:43:57;115.88;;;62.08;;
64826;SDS011;51265;53.972;12.286;2022-08-19T10:46:26;111.05;;;60.42;;
64826;SDS011;51265;53.972;12.286;2022-08-19T10:48:54;108.03;;;61.50;;
64826;SDS011;51265;53.972;12.286;2022-08-19T10:51:21;128.43;;;66.20;;
64826;SDS011;51265;53.972;12.286;2022-08-19T10:54:06;139.30;;;66.57;;
64826;SDS011;51265;53.972;12.286;2022-08-19T10:56:32;108.72;;;61.88;;
64826;SDS011;51265;53.972;12.286;2022-08-19T10:59:17;112.10;;;61.00;;
64826;SDS011;51265;53.972;12.286;2022-08-19T11:01:46;120.72;;;62.97;;
64826;SDS011;51265;53.972;12.286;2022-08-19T11:04:13;109.38;;;59.30;;
64826;SDS011;51265;53.972;12.286;2022-08-19T11:06:43;117.78;;;62.30;;
64826;SDS011;51265;53.972;12.286;2022-08-19T11:09:16;114.43;;;59.03;;
64826;SDS011;51265;53.972;12.286;2022-08-19T11:11:44;120.93;;;62.15;;
64826;SDS011;51265;53.972;12.286;2022-08-19T11:14:13;133.40;;;63.03;;
64826;SDS011;51265;53.972;12.286;2022-08-19T11:16:41;126.78;;;62.22;;
64826;SDS011;51265;53.972;12.286;2022-08-19T11:19:08;132.75;;;63.85;;
64826;SDS011;51265;53.972;12.286;2022-08-19T11:21:37;137.32;;;65.13;;
64826;SDS011;51265;53.972;12.286;2022-08-19T11:24:06;129.13;;;64.90;;
64826;SDS011;51265;53.972;12.286;2022-08-19T11:26:34;119.85;;;63.92;;
64826;SDS011;51265;53.972;12.286;2022-08-19T11:29:02;138.30;;;65.88;;
64826;SDS011;51265;53.972;12.286;2022-08-19T11:31:31;114.25;;;63.97;;
64826;SDS011;51265;53.972;12.286;2022-08-19T11:34:01;129.57;;;66.10;;
64826;SDS011;51265;53.972;12.286;2022-08-19T11:36:29;115.95;;;65.47;;
64826;SDS011;51265;53.972;12.286;2022-08-19T11:39:12;113.68;;;63.10;;
64826;SDS011;51265;53.972;12.286;2022-08-19T11:41:40;112.50;;;63.42;;
64826;SDS011;51265;53.972;12.286;2022-08-19T11:44:06;123.25;;;64.88;;
64826;SDS011;51265;53.972;12.286;2022-08-19T11:46:33;125.43;;;65.63;;
64826;SDS011;51265;53.972;12.286;2022-08-19T11:49:00;127.85;;;67.85;;
64826;SDS011;51265;53.972;12.286;2022-08-19T11:51:29;132.82;;;69.15;;
64826;SDS011;51265;53.972;12.286;2022-08-19T11:53:56;166.07;;;73.88;;
64826;SDS011;51265;53.972;12.286;2022-08-19T11:56:23;133.52;;;71.40;;
64826;SDS011;51265;53.972;12.286;2022-08-19T11:58:50;146.07;;;72.93;;
64826;SDS011;51265;53.972;12.286;2022-08-19T12:01:18;153.32;;;74.25;;
64826;SDS011;51265;53.972;12.286;2022-08-19T12:03:46;163.02;;;76.85;;
64826;SDS011;51265;53.972;12.286;2022-08-19T12:06:14;188.93;;;80.20;;
64826;SDS011;51265;53.972;12.286;2022-08-19T12:08:42;172.70;;;77.93;;
64826;SDS011;51265;53.972;12.286;2022-08-19T12:11:09;180.32;;;79.38;;
64826;SDS011;51265;53.972;12.286;2022-08-19T12:13:37;199.05;;;81.75;;
64826;SDS011;51265;53.972;12.286;2022-08-19T12:16:11;185.98;;;82.88;;
64826;SDS011;51265;53.972;12.286;2022-08-19T12:18:42;179.73;;;78.22;;
64826;SDS011;51265;53.972;12.286;2022-08-19T12:21:12;176.23;;;79.30;;
64826;SDS011;51265;53.972;12.286;2022-08-19T12:23:40;194.52;;;81.93;;
64826;SDS011;51265;53.972;12.286;2022-08-19T12:26:06;187.60;;;82.55;;
64826;SDS011;51265;53.972;12.286;2022-08-19T12:28:34;240.65;;;88.25;;
64826;SDS011;51265;53.972;12.286;2022-08-19T12:31:01;199.02;;;85.93;;
64826;SDS011;51265;53.972;12.286;2022-08-19T12:36:01;178.15;;;78.82;;
64826;SDS011;51265;53.972;12.286;2022-08-19T12:38:29;180.38;;;81.65;;
64826;SDS011;51265;53.972;12.286;2022-08-19T12:40:55;208.82;;;83.47;;
64826;SDS011;51265;53.972;12.286;2022-08-19T12:43:21;216.90;;;85.82;;
64826;SDS011;51265;53.972;12.286;2022-08-19T12:45:47;192.13;;;81.45;;
64826;SDS011;51265;53.972;12.286;2022-08-19T12:48:13;208.13;;;83.55;;
64826;SDS011;51265;53.972;12.286;2022-08-19T12:50:40;188.25;;;80.07;;
64826;SDS011;51265;53.972;12.286;2022-08-19T12:53:06;216.15;;;81.78;;
64826;SDS011;51265;53.972;12.286;2022-08-19T12:55:33;193.60;;;81.20;;
64826;SDS011;51265;53.972;12.286;2022-08-19T12:57:59;177.65;;;78.07;;
64826;SDS011;51265;53.972;12.286;2022-08-19T13:00:27;205.20;;;84.07;;
64826;SDS011;51265;53.972;12.286;2022-08-19T13:02:58;195.50;;;80.20;;
64826;SDS011;51265;53.972;12.286;2022-08-19T13:05:26;189.50;;;80.30;;
64826;SDS011;51265;53.972;12.286;2022-08-19T13:07:54;199.05;;;81.15;;
64826;SDS011;51265;53.972;12.286;2022-08-19T13:10:27;202.52;;;82.38;;
64826;SDS011;51265;53.972;12.286;2022-08-19T13:13:00;166.45;;;74.78;;
64826;SDS011;51265;53.972;12.286;2022-08-19T13:15:34;180.80;;;77.55;;
64826;SDS011;51265;53.972;12.286;2022-08-19T13:18:01;166.90;;;73.55;;
64826;SDS011;51265;53.972;12.286;2022-08-19T13:20:27;154.73;;;72.57;;
64826;SDS011;51265;53.972;12.286;2022-08-19T13:22:54;156.63;;;72.60;;
64826;SDS011;51265;53.972;12.286;2022-08-19T13:25:20;188.85;;;79.18;;
64826;SDS011;51265;53.972;12.286;2022-08-19T13:27:47;157.18;;;72.25;;
64826;SDS011;51265;53.972;12.286;2022-08-19T13:30:14;176.38;;;75.43;;
64826;SDS011;51265;53.972;12.286;2022-08-19T13:33:00;161.98;;;71.18;;
64826;SDS011;51265;53.972;12.286;2022-08-19T13:35:45;184.50;;;77.15;;
64826;SDS011;51265;53.972;12.286;2022-08-19T13:38:17;141.85;;;68.40;;
64826;SDS011;51265;53.972;12.286;2022-08-19T13:40:46;128.48;;;64.40;;
64826;SDS011;51265;53.972;12.286;2022-08-19T13:43:13;141.35;;;67.75;;
64826;SDS011;51265;53.972;12.286;2022-08-19T13:45:39;146.98;;;69.50;;
64826;SDS011;51265;53.972;12.286;2022-08-19T13:48:05;167.65;;;72.03;;
64826;SDS011;51265;53.972;12.286;2022-08-19T13:50:34;181.73;;;75.50;;
64826;SDS011;51265;53.972;12.286;2022-08-19T13:53:06;185.48;;;76.03;;
64826;SDS011;51265;53.972;12.286;2022-08-19T13:55:32;212.63;;;80.25;;
64826;SDS011;51265;53.972;12.286;2022-08-19T13:57:59;185.43;;;75.38;;
64826;SDS011;51265;53.972;12.286;2022-08-19T14:00:29;177.50;;;74.60;;
64826;SDS011;51265;53.972;12.286;2022-08-19T14:02:58;166.85;;;74.10;;
64826;SDS011;51265;53.972;12.286;2022-08-19T14:05:24;131.77;;;61.30;;
64826;SDS011;51265;53.972;12.286;2022-08-19T14:07:51;131.25;;;61.92;;
64826;SDS011;51265;53.972;12.286;2022-08-19T14:10:17;137.95;;;64.03;;
64826;SDS011;51265;53.972;12.286;2022-08-19T14:12:44;108.07;;;56.40;;
64826;SDS011;51265;53.972;12.286;2022-08-19T14:15:11;123.38;;;60.47;;
64826;SDS011;51265;53.972;12.286;2022-08-19T14:17:38;117.05;;;59.47;;
64826;SDS011;51265;53.972;12.286;2022-08-19T14:20:05;158.85;;;66.60;;